Time;durP1;ratioP1;P1;durP2;ratioP2;P2;SDS_P1;SDS_P2;PMS_P1;PMS_P2;Temp;Humidity;BMP_temperature;BMP_pressure;BME280_temperature;BME280_humidity;BME280_pressure;Samples;Min_cycle;Max_cycle;Signal;HPM_P1;HPM_P2
2023/04/23 00:01:16;;;;;;;11.68;3.97;;;;;;;;;;5015386;28;20112;-75
2023/04/23 00:03:42;;;;;;;7.88;3.90;;;;;;;;;;5014587;28;20029;-76
2023/04/23 00:06:11;;;;;;;8.77;3.92;;;;;;;;;;5014470;28;20041;-80
2023/04/23 00:08:38;;;;;;;6.22;4.07;;;;;;;;;;4997889;28;20054;-77
2023/04/23 00:11:05;;;;;;;11.95;8.07;;;;;;;;;;5014148;28;20088;-76
2023/04/23 00:13:30;;;;;;;7.53;4.18;;;;;;;;;;5015455;28;20034;-76
2023/04/23 00:15:56;;;;;;;8.90;4.43;;;;;;;;;;5014475;28;20037;-76
2023/04/23 00:18:21;;;;;;;6.75;4.10;;;;;;;;;;5013087;28;20036;-76
2023/04/23 00:20:46;;;;;;;10.77;4.23;;;;;;;;;;5014559;28;20126;-76
2023/04/23 00:23:11;;;;;;;10.10;4.30;;;;;;;;;;5013456;28;20298;-76
2023/04/23 00:25:37;;;;;;;8.40;4.40;;;;;;;;;;5013412;28;20259;-76
2023/04/23 00:28:02;;;;;;;6.85;4.07;;;;;;;;;;5014562;28;20545;-75
2023/04/23 00:30:28;;;;;;;7.85;4.00;;;;;;;;;;5014715;28;20022;-76
2023/04/23 00:32:53;;;;;;;8.40;4.25;;;;;;;;;;5016034;28;20041;-81
2023/04/23 00:35:19;;;;;;;11.67;4.30;;;;;;;;;;5013917;28;20482;-75
2023/04/23 00:37:44;;;;;;;6.95;4.40;;;;;;;;;;5012807;28;20284;-75
2023/04/23 00:40:10;;;;;;;9.50;4.32;;;;;;;;;;5012620;28;20496;-75
2023/04/23 00:42:37;;;;;;;7.30;4.35;;;;;;;;;;5014654;28;20026;-76
2023/04/23 00:45:04;;;;;;;9.82;4.15;;;;;;;;;;5013677;28;20076;-75
2023/04/23 00:47:30;;;;;;;5.45;4.13;;;;;;;;;;5013737;28;20504;-75
2023/04/23 00:49:55;;;;;;;9.27;4.25;;;;;;;;;;5012286;28;20030;-75
2023/04/23 00:52:20;;;;;;;9.82;4.60;;;;;;;;;;5013074;28;20112;-74
2023/04/23 00:54:46;;;;;;;6.78;4.55;;;;;;;;;;5017227;28;20060;-75
2023/04/23 00:57:11;;;;;;;9.75;4.63;;;;;;;;;;5017170;28;20347;-74
2023/04/23 00:59:37;;;;;;;10.38;4.65;;;;;;;;;;5015969;28;20029;-76
2023/04/23 01:02:02;;;;;;;7.93;4.53;;;;;;;;;;5016654;28;20022;-75
2023/04/23 01:04:29;;;;;;;11.43;4.63;;;;;;;;;;5016670;28;20029;-76
2023/04/23 01:06:56;;;;;;;8.80;4.95;;;;;;;;;;5016483;28;20492;-76
2023/04/23 01:09:22;;;;;;;7.97;4.50;;;;;;;;;;5015864;28;20030;-76
2023/04/23 01:11:50;;;;;;;7.32;4.35;;;;;;;;;;5014462;28;20029;-77
2023/04/23 01:14:15;;;;;;;8.95;4.53;;;;;;;;;;5017244;28;20041;-77
2023/04/23 01:16:41;;;;;;;9.57;4.88;;;;;;;;;;5016440;28;20018;-76
2023/04/23 01:19:08;;;;;;;9.35;4.80;;;;;;;;;;5016452;28;20362;-76
2023/04/23 01:21:36;;;;;;;9.00;4.85;;;;;;;;;;5016503;28;20160;-76
2023/04/23 01:24:05;;;;;;;9.50;5.30;;;;;;;;;;5016385;28;20056;-76
2023/04/23 01:26:30;;;;;;;7.03;4.72;;;;;;;;;;5015864;28;20018;-77
2023/04/23 01:28:56;;;;;;;9.02;5.10;;;;;;;;;;5015846;28;20018;-77
2023/04/23 01:31:22;;;;;;;8.45;5.05;;;;;;;;;;5015898;28;20064;-77
2023/04/23 01:33:50;;;;;;;7.93;5.25;;;;;;;;;;5015763;28;20041;-76
2023/04/23 01:36:15;;;;;;;10.00;5.28;;;;;;;;;;5015920;28;20064;-77
2023/04/23 01:38:40;;;;;;;13.75;4.88;;;;;;;;;;5014420;28;20474;-76
2023/04/23 01:41:05;;;;;;;9.32;4.82;;;;;;;;;;5015987;28;20076;-77
2023/04/23 01:43:31;;;;;;;10.40;5.10;;;;;;;;;;5014311;28;20064;-77
2023/04/23 01:45:57;;;;;;;11.10;5.40;;;;;;;;;;5015583;28;20259;-77
2023/04/23 01:48:23;;;;;;;7.65;5.10;;;;;;;;;;5015663;28;20021;-77
2023/04/23 01:50:50;;;;;;;12.52;5.63;;;;;;;;;;5017384;28;20029;-77
2023/04/23 01:53:15;;;;;;;8.13;5.25;;;;;;;;;;5016306;28;20433;-77
2023/04/23 01:55:42;;;;;;;11.55;5.43;;;;;;;;;;5015895;28;20022;-76
2023/04/23 01:58:07;;;;;;;7.47;5.05;;;;;;;;;;5014366;28;20494;-76
2023/04/23 02:00:32;;;;;;;10.52;5.32;;;;;;;;;;5015401;28;20121;-77
2023/04/23 02:02:57;;;;;;;11.77;5.20;;;;;;;;;;5013817;28;20029;-77
2023/04/23 02:05:24;;;;;;;12.97;5.53;;;;;;;;;;5016034;28;20255;-77
2023/04/23 02:07:50;;;;;;;8.48;4.95;;;;;;;;;;5015667;28;20255;-77
2023/04/23 02:10:17;;;;;;;8.80;4.70;;;;;;;;;;5013482;28;20072;-77
2023/04/23 02:12:43;;;;;;;11.40;5.03;;;;;;;;;;5014752;28;20474;-76
2023/04/23 02:15:10;;;;;;;8.95;5.40;;;;;;;;;;5016720;28;20030;-76
2023/04/23 02:17:35;;;;;;;10.75;5.13;;;;;;;;;;5016818;28;20420;-76
2023/04/23 02:20:01;;;;;;;8.50;4.68;;;;;;;;;;5013826;28;20026;-76
2023/04/23 02:22:27;;;;;;;8.38;5.30;;;;;;;;;;5013776;28;20025;-76
2023/04/23 02:24:53;;;;;;;8.02;5.10;;;;;;;;;;5015733;28;20442;-76
2023/04/23 02:27:19;;;;;;;9.00;5.20;;;;;;;;;;5013719;28;20028;-77
2023/04/23 02:29:45;;;;;;;8.30;5.18;;;;;;;;;;5013452;28;20034;-76
2023/04/23 02:32:10;;;;;;;7.05;5.07;;;;;;;;;;5015292;28;20398;-76
2023/04/23 02:34:36;;;;;;;8.32;4.95;;;;;;;;;;5015433;28;20033;-77
2023/04/23 02:37:03;;;;;;;11.95;5.60;;;;;;;;;;5014896;28;20026;-77
2023/04/23 02:39:29;;;;;;;12.25;5.07;;;;;;;;;;5015126;28;20076;-77
2023/04/23 02:41:55;;;;;;;12.43;5.40;;;;;;;;;;5014869;28;20026;-77
2023/04/23 02:44:20;;;;;;;10.43;5.20;;;;;;;;;;5014982;28;20414;-77
2023/04/23 02:46:46;;;;;;;10.00;5.32;;;;;;;;;;5014782;28;20029;-77
2023/04/23 02:49:11;;;;;;;8.95;5.40;;;;;;;;;;5014903;28;20018;-77
2023/04/23 02:51:36;;;;;;;10.20;5.10;;;;;;;;;;5013374;28;20022;-77
2023/04/23 02:54:02;;;;;;;7.80;5.23;;;;;;;;;;5014655;28;20416;-77
2023/04/23 02:56:28;;;;;;;9.18;4.97;;;;;;;;;;5015045;28;20278;-77
2023/04/23 02:58:53;;;;;;;7.93;5.35;;;;;;;;;;5013346;28;20496;-77
2023/04/23 03:01:19;;;;;;;8.00;5.13;;;;;;;;;;5014385;28;20028;-76
2023/04/23 03:03:44;;;;;;;12.63;5.30;;;;;;;;;;5014817;28;20634;-76
2023/04/23 03:06:09;;;;;;;9.27;5.13;;;;;;;;;;5013499;28;20401;-76
2023/04/23 03:08:35;;;;;;;8.90;5.22;;;;;;;;;;5014178;28;20529;-75
2023/04/23 03:11:00;;;;;;;9.03;5.10;;;;;;;;;;5013942;28;20520;-77
2023/04/23 03:13:25;;;;;;;11.03;5.60;;;;;;;;;;5012574;28;20762;-76
2023/04/23 03:15:51;;;;;;;11.88;5.70;;;;;;;;;;5012471;28;20678;-75
2023/04/23 03:18:17;;;;;;;10.77;5.30;;;;;;;;;;5014097;28;20044;-76
2023/04/23 03:20:42;;;;;;;9.88;5.00;;;;;;;;;;5014237;28;20459;-76
2023/04/23 03:23:08;;;;;;;9.05;4.70;;;;;;;;;;5014396;28;20026;-76
2023/04/23 03:25:33;;;;;;;7.38;4.90;;;;;;;;;;5013811;28;20061;-75
2023/04/23 03:27:59;;;;;;;9.32;5.07;;;;;;;;;;5014240;28;20046;-76
2023/04/23 03:30:24;;;;;;;7.18;4.63;;;;;;;;;;5014078;28;20029;-77
2023/04/23 03:32:49;;;;;;;16.88;5.53;;;;;;;;;;5014239;28;20474;-77
2023/04/23 03:35:15;;;;;;;10.25;5.18;;;;;;;;;;5014052;28;20021;-77
2023/04/23 03:37:40;;;;;;;8.10;4.43;;;;;;;;;;5013940;28;20033;-76
2023/04/23 03:40:07;;;;;;;10.57;4.90;;;;;;;;;;5012492;28;20026;-77
2023/04/23 03:42:33;;;;;;;12.52;4.15;;;;;;;;;;5013753;28;20026;-76
2023/04/23 03:44:59;;;;;;;9.35;4.15;;;;;;;;;;5013819;28;20152;-76
2023/04/23 03:47:25;;;;;;;7.43;3.95;;;;;;;;;;5012319;28;20022;-76
2023/04/23 03:49:51;;;;;;;6.97;4.40;;;;;;;;;;5014270;28;20108;-77
2023/04/23 03:52:16;;;;;;;8.60;4.03;;;;;;;;;;5013978;28;20068;-77
2023/04/23 03:54:41;;;;;;;5.35;3.75;;;;;;;;;;5013998;28;20026;-78
2023/04/23 03:57:08;;;;;;;7.20;4.00;;;;;;;;;;5013325;28;20410;-77
2023/04/23 03:59:33;;;;;;;6.70;3.92;;;;;;;;;;5012170;28;20271;-76
2023/04/23 04:01:58;;;;;;;12.00;4.10;;;;;;;;;;5013818;28;20022;-76
2023/04/23 04:04:23;;;;;;;8.70;4.10;;;;;;;;;;5013683;28;20273;-77
2023/04/23 04:06:49;;;;;;;5.47;3.60;;;;;;;;;;5013474;28;20401;-76
2023/04/23 04:09:14;;;;;;;6.10;3.90;;;;;;;;;;5013135;28;20026;-76
2023/04/23 04:11:40;;;;;;;8.95;3.70;;;;;;;;;;5011671;28;20485;-77
2023/04/23 04:14:05;;;;;;;7.80;3.80;;;;;;;;;;5012113;28;20061;-77
2023/04/23 04:16:30;;;;;;;7.38;3.72;;;;;;;;;;5011793;28;20448;-77
2023/04/23 04:18:55;;;;;;;7.95;3.97;;;;;;;;;;5013004;28;20022;-76
2023/04/23 04:21:21;;;;;;;7.10;3.97;;;;;;;;;;5013242;28;20060;-76
2023/04/23 04:23:46;;;;;;;12.57;4.43;;;;;;;;;;5011740;28;20251;-76
2023/04/23 04:26:12;;;;;;;6.32;3.72;;;;;;;;;;5013636;28;20255;-76
2023/04/23 04:28:38;;;;;;;6.13;3.78;;;;;;;;;;5017851;28;20366;-77
2023/04/23 04:31:05;;;;;;;11.02;4.10;;;;;;;;;;5016753;28;20084;-76
2023/04/23 04:33:31;;;;;;;6.88;3.70;;;;;;;;;;5017089;28;20504;-77
2023/04/23 04:35:58;;;;;;;6.93;3.97;;;;;;;;;;5017914;28;20084;-77
2023/04/23 04:38:23;;;;;;;8.00;3.92;;;;;;;;;;5018802;28;20569;-77
2023/04/23 04:40:49;;;;;;;8.03;4.07;;;;;;;;;;5016872;28;20061;-78
2023/04/23 04:43:16;;;;;;;6.43;3.97;;;;;;;;;;5017184;28;20266;-78
2023/04/23 04:45:41;;;;;;;7.35;3.88;;;;;;;;;;5017640;28;20037;-77
2023/04/23 04:48:06;;;;;;;9.68;3.88;;;;;;;;;;5018158;28;20026;-77
2023/04/23 04:50:32;;;;;;;7.55;4.03;;;;;;;;;;5016588;28;20477;-77
2023/04/23 04:52:57;;;;;;;10.60;4.07;;;;;;;;;;5016820;28;20393;-77
2023/04/23 04:55:22;;;;;;;11.03;3.97;;;;;;;;;;5016703;28;20026;-78
2023/04/23 04:57:47;;;;;;;8.30;4.10;;;;;;;;;;5016888;28;20423;-77
2023/04/23 05:00:25;;;;;;;7.43;3.60;;;;;;;;;;5016885;28;20301;-77
2023/04/23 05:02:51;;;;;;;7.15;3.80;;;;;;;;;;5018294;28;20040;-77
2023/04/23 05:05:17;;;;;;;9.43;3.80;;;;;;;;;;5015857;28;20025;-77
2023/04/23 05:07:42;;;;;;;6.47;3.90;;;;;;;;;;5016750;28;20025;-76
2023/04/23 05:10:08;;;;;;;7.38;3.88;;;;;;;;;;5014879;28;20401;-76
2023/04/23 05:12:33;;;;;;;7.55;3.70;;;;;;;;;;5016096;28;20030;-76
2023/04/23 05:14:59;;;;;;;12.07;4.50;;;;;;;;;;5017767;28;20112;-78
2023/04/23 05:17:24;;;;;;;6.10;3.53;;;;;;;;;;5016649;28;20326;-78
2023/04/23 05:19:49;;;;;;;5.60;3.70;;;;;;;;;;5016353;28;20295;-77
2023/04/23 05:22:17;;;;;;;6.00;3.88;;;;;;;;;;5016723;28;20071;-76
2023/04/23 05:24:42;;;;;;;7.32;3.63;;;;;;;;;;5015982;28;20029;-76
2023/04/23 05:27:07;;;;;;;10.38;3.70;;;;;;;;;;5016072;28;20022;-77
2023/04/23 05:29:32;;;;;;;7.78;3.40;;;;;;;;;;5016203;28;20048;-77
2023/04/23 05:31:58;;;;;;;9.10;4.30;;;;;;;;;;5016069;28;20021;-76
2023/04/23 05:34:23;;;;;;;7.15;3.67;;;;;;;;;;5016508;28;20326;-77
2023/04/23 05:36:48;;;;;;;7.30;3.80;;;;;;;;;;5017434;28;20022;-78
2023/04/23 05:39:13;;;;;;;5.80;3.90;;;;;;;;;;5015441;28;20282;-78
2023/04/23 05:41:38;;;;;;;5.43;3.67;;;;;;;;;;5017726;28;20313;-77
2023/04/23 05:44:04;;;;;;;7.80;3.73;;;;;;;;;;5016846;28;20263;-77
2023/04/23 05:46:29;;;;;;;8.02;4.13;;;;;;;;;;5016863;28;20385;-77
2023/04/23 05:48:54;;;;;;;7.73;4.00;;;;;;;;;;5016122;28;20144;-77
2023/04/23 05:51:20;;;;;;;5.30;3.10;;;;;;;;;;5016816;28;20306;-79
2023/04/23 05:53:45;;;;;;;6.68;3.70;;;;;;;;;;5016079;28;20252;-78
2023/04/23 05:56:11;;;;;;;5.93;3.73;;;;;;;;;;5017393;28;20040;-78
2023/04/23 05:58:37;;;;;;;7.70;3.67;;;;;;;;;;5017632;28;20281;-76
2023/04/23 06:01:03;;;;;;;7.32;3.35;;;;;;;;;;5017141;28;20547;-78
2023/04/23 06:03:28;;;;;;;7.15;3.63;;;;;;;;;;5016628;28;20035;-77
2023/04/23 06:05:53;;;;;;;7.88;3.60;;;;;;;;;;5014907;28;20053;-77
2023/04/23 06:08:19;;;;;;;9.63;3.80;;;;;;;;;;5015100;28;20014;-78
2023/04/23 06:10:45;;;;;;;6.30;3.40;;;;;;;;;;5015353;28;20123;-76
2023/04/23 06:13:10;;;;;;;6.47;3.53;;;;;;;;;;5016336;28;20026;-77
2023/04/23 06:15:35;;;;;;;6.50;3.78;;;;;;;;;;5015562;28;20033;-77
2023/04/23 06:18:00;;;;;;;6.00;3.23;;;;;;;;;;5016031;28;20036;-77
2023/04/23 06:20:26;;;;;;;7.90;3.50;;;;;;;;;;5015652;28;20247;-77
2023/04/23 06:22:51;;;;;;;4.07;3.07;;;;;;;;;;5015489;28;20105;-77
2023/04/23 06:25:16;;;;;;;6.43;3.33;;;;;;;;;;5013764;28;20295;-76
2023/04/23 06:27:44;;;;;;;6.30;3.55;;;;;;;;;;5013785;28;20022;-77
2023/04/23 06:30:10;;;;;;;5.50;3.15;;;;;;;;;;5015143;28;20022;-76
2023/04/23 06:32:35;;;;;;;8.25;3.50;;;;;;;;;;5013865;28;20075;-76
2023/04/23 06:35:00;;;;;;;7.13;3.33;;;;;;;;;;5014873;28;20101;-76
2023/04/23 06:37:27;;;;;;;5.13;3.30;;;;;;;;;;5015802;28;20287;-77
2023/04/23 06:39:52;;;;;;;6.88;3.20;;;;;;;;;;5015929;28;20264;-75
2023/04/23 06:42:17;;;;;;;5.30;3.50;;;;;;;;;;5015911;28;20025;-77
2023/04/23 06:44:42;;;;;;;5.93;3.47;;;;;;;;;;5015491;28;20266;-77
2023/04/23 06:47:07;;;;;;;4.93;2.97;;;;;;;;;;5014906;28;20268;-76
2023/04/23 06:49:33;;;;;;;7.40;3.57;;;;;;;;;;5014730;28;20017;-77
2023/04/23 06:51:58;;;;;;;6.90;3.10;;;;;;;;;;5013252;28;20291;-75
2023/04/23 06:54:23;;;;;;;5.80;3.20;;;;;;;;;;5014884;28;20032;-76
2023/04/23 06:56:49;;;;;;;5.68;3.00;;;;;;;;;;5016358;28;20263;-76
2023/04/23 06:59:15;;;;;;;7.38;3.08;;;;;;;;;;5014913;28;20140;-76
2023/04/23 07:01:41;;;;;;;6.00;3.20;;;;;;;;;;5015266;28;20501;-77
2023/04/23 07:04:07;;;;;;;6.35;3.05;;;;;;;;;;5015637;28;20283;-77
2023/04/23 07:06:33;;;;;;;7.47;3.13;;;;;;;;;;5013289;28;20456;-78
2023/04/23 07:08:58;;;;;;;7.30;2.97;;;;;;;;;;5015075;28;20049;-77
2023/04/23 07:11:24;;;;;;;7.45;3.03;;;;;;;;;;5014079;28;20457;-77
2023/04/23 07:13:50;;;;;;;4.55;2.72;;;;;;;;;;5013797;28;20037;-76
2023/04/23 07:16:15;;;;;;;4.88;2.88;;;;;;;;;;5014342;28;20042;-77
2023/04/23 07:18:40;;;;;;;2.72;1.98;;;;;;;;;;5014211;28;20104;-76
2023/04/23 07:21:06;;;;;;;6.07;2.10;;;;;;;;;;5013840;28;20076;-77
2023/04/23 07:23:31;;;;;;;2.73;1.70;;;;;;;;;;5014133;28;20266;-77
2023/04/23 07:25:56;;;;;;;3.73;1.80;;;;;;;;;;5014250;28;20263;-77
2023/04/23 07:28:21;;;;;;;3.20;1.90;;;;;;;;;;5014627;28;20247;-76
2023/04/23 07:30:47;;;;;;;4.43;1.75;;;;;;;;;;5014241;28;20260;-76
2023/04/23 07:33:13;;;;;;;3.88;1.77;;;;;;;;;;5014762;28;20028;-77
2023/04/23 07:35:38;;;;;;;4.00;1.70;;;;;;;;;;5014598;28;20025;-78
2023/04/23 07:38:03;;;;;;;1.88;1.38;;;;;;;;;;5014816;28;20034;-76
2023/04/23 07:40:28;;;;;;;5.93;1.50;;;;;;;;;;5013755;28;20383;-77
2023/04/23 07:42:54;;;;;;;2.95;1.55;;;;;;;;;;5013051;28;20720;-77
2023/04/23 07:45:19;;;;;;;2.47;1.35;;;;;;;;;;5014644;28;20033;-77
2023/04/23 07:47:47;;;;;;;4.47;1.60;;;;;;;;;;5013998;28;20021;-78
2023/04/23 07:50:13;;;;;;;3.30;1.50;;;;;;;;;;5013557;28;20056;-77
2023/04/23 07:52:38;;;;;;;4.07;1.40;;;;;;;;;;5013830;28;20032;-77
2023/04/23 07:55:04;;;;;;;2.70;1.63;;;;;;;;;;5013741;28;20314;-77
2023/04/23 07:57:29;;;;;;;3.03;1.70;;;;;;;;;;5011937;28;20030;-77
2023/04/23 07:59:55;;;;;;;6.55;2.10;;;;;;;;;;5012266;28;20397;-77
2023/04/23 08:02:24;;;;;;;2.47;1.60;;;;;;;;;;5013720;28;20045;-76
2023/04/23 08:04:50;;;;;;;2.33;1.50;;;;;;;;;;5013749;28;20267;-75
2023/04/23 08:07:15;;;;;;;5.53;1.70;;;;;;;;;;5013261;28;20533;-76
2023/04/23 08:09:41;;;;;;;2.33;1.57;;;;;;;;;;5013084;28;20036;-77
2023/04/23 08:12:06;;;;;;;2.20;1.40;;;;;;;;;;5012573;28;20271;-76
2023/04/23 08:14:31;;;;;;;5.23;1.70;;;;;;;;;;5013568;28;20409;-77
2023/04/23 08:16:57;;;;;;;3.97;1.60;;;;;;;;;;5013480;28;20650;-77
2023/04/23 08:19:22;;;;;;;2.50;1.40;;;;;;;;;;5012625;28;20626;-77
2023/04/23 08:21:47;;;;;;;3.53;1.27;;;;;;;;;;5012951;28;20430;-77
2023/04/23 08:24:12;;;;;;;3.20;1.50;;;;;;;;;;5013021;28;20350;-76
2023/04/23 08:26:38;;;;;;;1.93;1.00;;;;;;;;;;5012942;28;20492;-77
2023/04/23 08:29:04;;;;;;;1.63;0.90;;;;;;;;;;5012906;28;20852;-77
2023/04/23 08:31:30;;;;;;;2.13;0.98;;;;;;;;;;5012875;28;20648;-77
2023/04/23 08:33:55;;;;;;;1.25;1.10;;;;;;;;;;5012966;28;20018;-75
2023/04/23 08:36:20;;;;;;;1.17;1.00;;;;;;;;;;5012080;28;20087;-76
2023/04/23 08:38:46;;;;;;;1.73;1.20;;;;;;;;;;5012731;28;20018;-77
2023/04/23 08:41:13;;;;;;;2.03;1.13;;;;;;;;;;5014914;28;20115;-77
2023/04/23 08:44:10;;;;;;;1.35;1.20;;;;;;;;;;5015392;28;20267;-77
2023/04/23 08:46:40;;;;;;;2.03;1.23;;;;;;;;;;5014850;28;20034;-76
2023/04/23 08:49:06;;;;;;;3.25;1.35;;;;;;;;;;5017080;28;20022;-76
2023/04/23 08:51:41;;;;;;;2.40;1.10;;;;;;;;;;5016660;28;20029;-75
2023/04/23 08:54:13;;;;;;;1.33;1.05;;;;;;;;;;5014694;28;20044;-75
2023/04/23 08:56:42;;;;;;;1.77;1.17;;;;;;;;;;5015735;28;20409;-75
2023/04/23 08:59:08;;;;;;;1.65;1.40;;;;;;;;;;5015921;28;20022;-76
2023/04/23 09:01:34;;;;;;;3.73;1.40;;;;;;;;;;5014991;28;20037;-75
2023/04/23 09:04:00;;;;;;;3.78;1.20;;;;;;;;;;5014958;28;20267;-76
2023/04/23 09:06:25;;;;;;;2.00;1.20;;;;;;;;;;5014924;28;20454;-76
2023/04/23 09:08:52;;;;;;;1.70;1.00;;;;;;;;;;5013163;28;20014;-76
2023/04/23 09:11:17;;;;;;;1.92;1.20;;;;;;;;;;5013247;28;20041;-75
2023/04/23 09:13:43;;;;;;;2.17;1.10;;;;;;;;;;5015774;28;20030;-76
2023/04/23 09:16:09;;;;;;;1.17;1.07;;;;;;;;;;5017050;28;20025;-75
2023/04/23 09:18:34;;;;;;;2.05;1.13;;;;;;;;;;5018283;28;20290;-77
2023/04/23 09:21:02;;;;;;;1.63;1.00;;;;;;;;;;5018419;28;20022;-76
2023/04/23 09:23:27;;;;;;;1.35;1.00;;;;;;;;;;5016864;28;20758;-76
2023/04/23 09:25:55;;;;;;;1.70;1.00;;;;;;;;;;5017891;28;20028;-76
2023/04/23 09:28:32;;;;;;;1.40;1.05;;;;;;;;;;5018028;28;20735;-77
2023/04/23 09:30:58;;;;;;;1.83;1.00;;;;;;;;;;5018042;28;20040;-77
2023/04/23 09:33:23;;;;;;;1.83;0.77;;;;;;;;;;5018051;28;20384;-75
2023/04/23 09:35:48;;;;;;;5.33;1.00;;;;;;;;;;5017952;28;20026;-76
2023/04/23 09:38:14;;;;;;;1.00;0.90;;;;;;;;;;5016638;28;20271;-75
2023/04/23 09:40:39;;;;;;;0.80;0.70;;;;;;;;;;5018052;28;20037;-75
2023/04/23 09:43:06;;;;;;;0.80;0.77;;;;;;;;;;5017866;28;20045;-76
2023/04/23 09:45:31;;;;;;;2.13;0.88;;;;;;;;;;5017885;28;20054;-76
2023/04/23 09:47:57;;;;;;;1.48;0.70;;;;;;;;;;5018193;28;20044;-76
2023/04/23 09:50:35;;;;;;;1.10;1.00;;;;;;;;;;5017946;28;20030;-77
2023/04/23 09:53:01;;;;;;;1.52;0.80;;;;;;;;;;5016156;28;20022;-76
2023/04/23 09:55:29;;;;;;;0.82;0.70;;;;;;;;;;5017070;28;20026;-76
2023/04/23 09:57:54;;;;;;;1.38;0.90;;;;;;;;;;5017575;28;20095;-77
2023/04/23 10:00:21;;;;;;;0.77;0.70;;;;;;;;;;5016184;28;20481;-75
2023/04/23 10:02:50;;;;;;;1.15;0.80;;;;;;;;;;5017144;28;20775;-75
2023/04/23 10:05:17;;;;;;;2.25;0.90;;;;;;;;;;5017569;28;20140;-77
2023/04/23 10:07:45;;;;;;;1.80;0.77;;;;;;;;;;5015868;28;20366;-76
2023/04/23 10:10:11;;;;;;;0.60;0.60;;;;;;;;;;5015587;28;20078;-75
2023/04/23 10:12:36;;;;;;;1.60;0.70;;;;;;;;;;5016759;28;20029;-76
2023/04/23 10:15:04;;;;;;;1.40;1.05;;;;;;;;;;5017035;28;20041;-76
2023/04/23 10:17:30;;;;;;;0.82;0.60;;;;;;;;;;5016748;28;20374;-76
2023/04/23 10:19:57;;;;;;;0.73;0.73;;;;;;;;;;5016770;28;20041;-76
2023/04/23 10:22:26;;;;;;;1.35;0.60;;;;;;;;;;5017025;28;20428;-76
2023/04/23 10:24:54;;;;;;;0.57;0.57;;;;;;;;;;5015329;28;20022;-76
2023/04/23 10:27:21;;;;;;;2.50;0.70;;;;;;;;;;5016910;28;20025;-75
2023/04/23 10:29:47;;;;;;;2.55;1.10;;;;;;;;;;5016515;28;20052;-75
2023/04/23 10:32:14;;;;;;;0.77;0.70;;;;;;;;;;5016820;28;20473;-77
2023/04/23 10:34:40;;;;;;;1.02;0.65;;;;;;;;;;5018104;28;20052;-77
2023/04/23 10:37:07;;;;;;;0.88;0.65;;;;;;;;;;5016413;28;20112;-78
2023/04/23 10:39:34;;;;;;;1.23;0.60;;;;;;;;;;5015539;28;20041;-79
2023/04/23 10:42:00;;;;;;;1.02;0.60;;;;;;;;;;5016230;28;20065;-76
2023/04/23 10:44:35;;;;;;;0.50;0.50;;;;;;;;;;5015762;28;20029;-77
2023/04/23 10:47:02;;;;;;;0.70;0.70;;;;;;;;;;5015351;28;20079;-77
2023/04/23 10:49:32;;;;;;;0.45;0.45;;;;;;;;;;5015538;28;20018;-79
2023/04/23 10:52:07;;;;;;;1.20;0.82;;;;;;;;;;5015559;28;20026;-77
2023/04/23 10:54:33;;;;;;;0.90;0.60;;;;;;;;;;5015149;28;20485;-78
2023/04/23 10:57:03;;;;;;;4.30;0.68;;;;;;;;;;5015122;28;20093;-76
2023/04/23 10:59:31;;;;;;;2.97;0.90;;;;;;;;;;5015629;28;20038;-77
2023/04/23 11:01:58;;;;;;;0.60;0.60;;;;;;;;;;5016080;28;20030;-77
2023/04/23 11:04:28;;;;;;;0.88;0.60;;;;;;;;;;5016847;28;20033;-76
2023/04/23 11:07:03;;;;;;;0.70;0.70;;;;;;;;;;5016874;28;20026;-76
2023/04/23 11:09:35;;;;;;;1.88;0.70;;;;;;;;;;5015305;28;20049;-76
2023/04/23 11:12:04;;;;;;;0.60;0.60;;;;;;;;;;5016125;28;20489;-76
2023/04/23 11:14:46;;;;;;;0.82;0.60;;;;;;;;;;5014798;28;20037;-76
2023/04/23 11:17:13;;;;;;;0.95;0.80;;;;;;;;;;5015243;28;20027;-76
2023/04/23 11:19:40;;;;;;;0.85;0.63;;;;;;;;;;5015671;28;20033;-77
2023/04/23 11:22:13;;;;;;;2.35;0.70;;;;;;;;;;5016950;28;20037;-75
2023/04/23 11:24:43;;;;;;;0.77;0.63;;;;;;;;;;5015897;28;20082;-76
2023/04/23 11:27:13;;;;;;;0.70;0.70;;;;;;;;;;5016135;28;20113;-76
2023/04/23 11:29:40;;;;;;;1.70;0.70;;;;;;;;;;5016246;28;20490;-77
2023/04/23 11:32:09;;;;;;;3.58;1.00;;;;;;;;;;5017563;28;20022;-78
2023/04/23 11:34:36;;;;;;;1.13;0.70;;;;;;;;;;5016444;28;20117;-78
2023/04/23 11:37:01;;;;;;;2.17;1.00;;;;;;;;;;5016797;28;20460;-77
2023/04/23 11:39:27;;;;;;;1.05;0.90;;;;;;;;;;5015778;28;20061;-79
2023/04/23 11:41:52;;;;;;;0.70;0.70;;;;;;;;;;5018989;28;20025;-78
2023/04/23 11:44:19;;;;;;;1.27;0.57;;;;;;;;;;5019135;28;20022;-77
2023/04/23 11:46:47;;;;;;;0.60;0.60;;;;;;;;;;5018031;28;20449;-77
2023/04/23 11:49:12;;;;;;;1.13;0.80;;;;;;;;;;5017293;28;20097;-78
2023/04/23 11:51:45;;;;;;;1.88;0.77;;;;;;;;;;5015619;28;20072;-77
2023/04/23 11:54:12;;;;;;;2.47;0.70;;;;;;;;;;5015716;28;20036;-78
2023/04/23 11:56:38;;;;;;;0.70;0.70;;;;;;;;;;5016991;28;20026;-77
2023/04/23 11:59:04;;;;;;;1.70;0.80;;;;;;;;;;5016682;28;20098;-79
2023/04/23 12:01:44;;;;;;;0.73;0.70;;;;;;;;;;5017262;28;20044;-77
2023/04/23 12:04:28;;;;;;;0.75;0.70;;;;;;;;;;5014553;28;20030;-77
2023/04/23 12:06:56;;;;;;;1.35;0.70;;;;;;;;;;5016073;28;20026;-78
2023/04/23 12:09:25;;;;;;;2.65;0.80;;;;;;;;;;5016922;28;20033;-76
2023/04/23 12:11:50;;;;;;;0.95;0.60;;;;;;;;;;5015499;28;20477;-78
2023/04/23 12:14:19;;;;;;;3.80;0.80;;;;;;;;;;5015155;28;20030;-78
2023/04/23 12:16:46;;;;;;;1.23;0.90;;;;;;;;;;5016236;28;20113;-77
2023/04/23 12:19:17;;;;;;;1.20;0.70;;;;;;;;;;5017296;28;20072;-78
2023/04/23 12:21:53;;;;;;;0.88;0.80;;;;;;;;;;5015461;28;20028;-78
2023/04/23 12:24:21;;;;;;;1.15;0.75;;;;;;;;;;5016894;28;20021;-77
2023/04/23 12:26:55;;;;;;;1.05;0.88;;;;;;;;;;5013516;28;20029;-76
2023/04/23 12:29:22;;;;;;;1.00;0.82;;;;;;;;;;5014312;28;20088;-78
2023/04/23 12:31:48;;;;;;;1.05;0.80;;;;;;;;;;5013676;28;20374;-77
2023/04/23 12:34:17;;;;;;;1.63;0.90;;;;;;;;;;5013329;28;20113;-77
2023/04/23 12:36:45;;;;;;;1.17;0.77;;;;;;;;;;5012445;28;20060;-77
2023/04/23 12:39:30;;;;;;;2.92;1.20;;;;;;;;;;5018500;28;20026;-78
2023/04/23 12:42:01;;;;;;;1.63;0.68;;;;;;;;;;5016203;28;20032;-76
2023/04/23 12:44:27;;;;;;;1.27;0.90;;;;;;;;;;5012923;28;20064;-72
2023/04/23 12:46:58;;;;;;;1.83;0.80;;;;;;;;;;5012948;28;20057;-72
2023/04/23 12:49:25;;;;;;;0.70;0.70;;;;;;;;;;5016699;28;20018;-75
2023/04/23 12:51:52;;;;;;;1.35;0.70;;;;;;;;;;5018188;28;20175;-74
2023/04/23 12:54:17;;;;;;;1.05;0.80;;;;;;;;;;5017735;28;20041;-75
2023/04/23 12:56:42;;;;;;;1.67;1.03;;;;;;;;;;5016403;28;20509;-75
2023/04/23 12:59:07;;;;;;;1.23;0.90;;;;;;;;;;5018211;28;20279;-76
2023/04/23 13:01:33;;;;;;;1.25;0.80;;;;;;;;;;5017482;28;20259;-76
2023/04/23 13:03:58;;;;;;;1.98;0.90;;;;;;;;;;5017869;28;20101;-76
2023/04/23 13:06:25;;;;;;;1.17;0.95;;;;;;;;;;5018251;28;20037;-76
2023/04/23 13:08:50;;;;;;;1.60;0.90;;;;;;;;;;5016644;28;20022;-75
2023/04/23 13:11:15;;;;;;;0.98;0.88;;;;;;;;;;5016446;28;20021;-76
2023/04/23 13:13:41;;;;;;;1.97;0.90;;;;;;;;;;5017741;28;20051;-74
2023/04/23 13:16:06;;;;;;;1.57;0.80;;;;;;;;;;5017885;28;20309;-75
2023/04/23 13:18:31;;;;;;;1.57;0.80;;;;;;;;;;5017662;28;20338;-75
2023/04/23 13:20:56;;;;;;;2.90;0.80;;;;;;;;;;5017776;28;20270;-74
2023/04/23 13:23:21;;;;;;;0.90;0.70;;;;;;;;;;5017548;28;20274;-74
2023/04/23 13:25:47;;;;;;;1.33;1.00;;;;;;;;;;5017024;28;20152;-75
2023/04/23 13:28:12;;;;;;;0.70;0.70;;;;;;;;;;5018383;28;20761;-76
2023/04/23 13:30:37;;;;;;;1.47;0.70;;;;;;;;;;5017887;28;20259;-75
2023/04/23 13:33:02;;;;;;;0.70;0.70;;;;;;;;;;5017230;28;20265;-76
2023/04/23 13:35:28;;;;;;;0.60;0.60;;;;;;;;;;5017412;28;20283;-76
2023/04/23 13:37:53;;;;;;;0.70;0.70;;;;;;;;;;5018072;28;20037;-75
2023/04/23 13:40:18;;;;;;;1.02;0.82;;;;;;;;;;5018425;28;20037;-75
2023/04/23 13:42:44;;;;;;;1.98;1.00;;;;;;;;;;5017189;28;20496;-75
2023/04/23 13:45:09;;;;;;;3.42;2.00;;;;;;;;;;5016575;28;20022;-75
2023/04/23 13:47:34;;;;;;;2.80;0.85;;;;;;;;;;5018160;28;20473;-76
2023/04/23 13:50:05;;;;;;;2.88;0.90;;;;;;;;;;5017857;28;20500;-75
2023/04/23 13:52:31;;;;;;;0.85;0.70;;;;;;;;;;5018082;28;20449;-76
2023/04/23 13:54:56;;;;;;;1.38;0.68;;;;;;;;;;5018196;28;20073;-75
2023/04/23 13:57:22;;;;;;;2.53;0.80;;;;;;;;;;5015112;28;20049;-75
2023/04/23 13:59:48;;;;;;;0.90;0.90;;;;;;;;;;5015774;28;20029;-75
2023/04/23 14:02:13;;;;;;;1.20;0.80;;;;;;;;;;5016036;28;20025;-74
2023/04/23 14:04:38;;;;;;;0.70;0.70;;;;;;;;;;5016066;28;20104;-76
2023/04/23 14:07:06;;;;;;;1.10;0.77;;;;;;;;;;5016055;28;20770;-76
2023/04/23 14:09:32;;;;;;;0.93;0.73;;;;;;;;;;5015943;28;20254;-75
2023/04/23 14:11:57;;;;;;;1.00;0.90;;;;;;;;;;5016115;28;20029;-75
2023/04/23 14:14:22;;;;;;;0.70;0.70;;;;;;;;;;5015652;28;20641;-75
2023/04/23 14:16:47;;;;;;;0.82;0.80;;;;;;;;;;5016015;28;20033;-76
2023/04/23 14:19:13;;;;;;;1.80;0.70;;;;;;;;;;5015793;28;20033;-75
2023/04/23 14:21:38;;;;;;;1.10;1.00;;;;;;;;;;5016569;28;20267;-73
2023/04/23 14:24:16;;;;;;;2.78;1.27;;;;;;;;;;5015632;28;20270;-73
2023/04/23 14:26:43;;;;;;;2.80;1.30;;;;;;;;;;5015994;28;20018;-76
2023/04/23 14:29:24;;;;;;;1.27;1.15;;;;;;;;;;5018128;28;20542;-77
2023/04/23 14:31:49;;;;;;;1.75;1.40;;;;;;;;;;5017460;28;20409;-77
2023/04/23 14:34:15;;;;;;;3.35;1.50;;;;;;;;;;5016078;28;20054;-77
2023/04/23 14:36:40;;;;;;;4.68;1.58;;;;;;;;;;5016616;28;20437;-77